Robbinsville, North Carolina
Current Conditions -  °F | °C
As of 10:15 AM on Wednesday 26 Nov 2014 (Local Time) from KRHP Reporting Station
Clear Clear  
Wind Chill: 42°   Ceiling: Unl
Heat Index: 45°   Visibility: 10mi
Dew Point: 33°   Wind: 5mph
Humidity: 65%   Direction: 260°W
Pressure: 30.04"   Gusts: NA
Location:  35.32°N, 83.81°W
Report Text: KRHP 261515Z AUTO 26004KT 10SM CLR 07/01 A3004 RMK AO2 T00700008
Loading
Personal Weather Stations






























Interactive Weather Map New forecast layout! Learn more

10-Day Weather Forecast

Advertisements
Track Severe Weather on mobile